sensor_id;sensor_type;location;lat;lon;timestamp;temperature;humidity
20504;DHT22;10410;51.046;6.980;2023-04-02T00:06:32;9.50;99.90
20504;DHT22;10410;51.046;6.980;2023-04-02T00:13:53;9.50;99.90
20504;DHT22;10410;51.046;6.980;2023-04-02T00:21:15;9.40;99.90
20504;DHT22;10410;51.046;6.980;2023-04-02T00:28:20;9.20;99.90
20504;DHT22;10410;51.046;6.980;2023-04-02T00:35:25;9.00;99.90
20504;DHT22;10410;51.046;6.980;2023-04-02T00:42:29;8.70;99.90
20504;DHT22;10410;51.046;6.980;2023-04-02T00:49:38;8.60;99.90
20504;DHT22;10410;51.046;6.980;2023-04-02T00:56:42;8.40;99.90
20504;DHT22;10410;51.046;6.980;2023-04-02T01:03:55;8.30;99.90
20504;DHT22;10410;51.046;6.980;2023-04-02T01:11:24;8.30;99.90
20504;DHT22;10410;51.046;6.980;2023-04-02T01:18:48;8.20;99.90
20504;DHT22;10410;51.046;6.980;2023-04-02T01:26:14;8.10;99.90
20504;DHT22;10410;51.046;6.980;2023-04-02T01:33:26;8.00;99.90
20504;DHT22;10410;51.046;6.980;2023-04-02T01:40:34;7.90;99.90
20504;DHT22;10410;51.046;6.980;2023-04-02T01:47:38;7.80;99.90
20504;DHT22;10410;51.046;6.980;2023-04-02T01:54:39;7.70;99.90
20504;DHT22;10410;51.046;6.980;2023-04-02T02:02:02;7.70;99.90
20504;DHT22;10410;51.046;6.980;2023-04-02T02:09:06;7.60;99.90
20504;DHT22;10410;51.046;6.980;2023-04-02T02:16:15;7.50;99.90
20504;DHT22;10410;51.046;6.980;2023-04-02T02:23:18;7.50;99.90
20504;DHT22;10410;51.046;6.980;2023-04-02T02:30:29;7.40;99.90
20504;DHT22;10410;51.046;6.980;2023-04-02T02:37:35;7.30;99.90
20504;DHT22;10410;51.046;6.980;2023-04-02T02:44:41;7.30;99.90
20504;DHT22;10410;51.046;6.980;2023-04-02T02:52:34;7.20;99.90
20504;DHT22;10410;51.046;6.980;2023-04-02T02:59:18;7.20;99.90
20504;DHT22;10410;51.046;6.980;2023-04-02T03:06:20;7.10;99.90
20504;DHT22;10410;51.046;6.980;2023-04-02T03:13:32;7.10;99.90
20504;DHT22;10410;51.046;6.980;2023-04-02T03:20:48;7.10;99.90
20504;DHT22;10410;51.046;6.980;2023-04-02T03:27:57;7.00;99.90
20504;DHT22;10410;51.046;6.980;2023-04-02T03:35:05;7.00;99.90
20504;DHT22;10410;51.046;6.980;2023-04-02T03:42:20;6.90;99.90
20504;DHT22;10410;51.046;6.980;2023-04-02T03:56:31;6.80;99.90
20504;DHT22;10410;51.046;6.980;2023-04-02T04:03:44;6.70;99.90
20504;DHT22;10410;51.046;6.980;2023-04-02T04:10:52;6.60;99.90
20504;DHT22;10410;51.046;6.980;2023-04-02T04:25:18;6.50;99.90
20504;DHT22;10410;51.046;6.980;2023-04-02T04:39:40;6.40;99.90
20504;DHT22;10410;51.046;6.980;2023-04-02T04:47:01;6.40;99.90
20504;DHT22;10410;51.046;6.980;2023-04-02T04:54:03;6.40;99.90
20504;DHT22;10410;51.046;6.980;2023-04-02T05:01:14;6.40;99.90
20504;DHT22;10410;51.046;6.980;2023-04-02T05:08:26;6.40;99.90
20504;DHT22;10410;51.046;6.980;2023-04-02T05:16:14;6.30;99.90
20504;DHT22;10410;51.046;6.980;2023-04-02T05:37:58;6.10;99.90
20504;DHT22;10410;51.046;6.980;2023-04-02T05:52:31;6.00;99.90
20504;DHT22;10410;51.046;6.980;2023-04-02T05:59:40;6.00;99.90
20504;DHT22;10410;51.046;6.980;2023-04-02T06:07:08;5.90;99.90
20504;DHT22;10410;51.046;6.980;2023-04-02T06:14:10;5.90;99.90
20504;DHT22;10410;51.046;6.980;2023-04-02T06:21:14;5.80;99.90
20504;DHT22;10410;51.046;6.980;2023-04-02T06:28:25;5.70;99.90
20504;DHT22;10410;51.046;6.980;2023-04-02T06:35:28;5.60;99.90
20504;DHT22;10410;51.046;6.980;2023-04-02T06:42:38;5.50;99.90
20504;DHT22;10410;51.046;6.980;2023-04-02T06:50:02;5.50;99.90
20504;DHT22;10410;51.046;6.980;2023-04-02T06:57:05;5.50;99.90
20504;DHT22;10410;51.046;6.980;2023-04-02T07:04:13;5.40;99.90
20504;DHT22;10410;51.046;6.980;2023-04-02T07:11:20;5.40;99.90
20504;DHT22;10410;51.046;6.980;2023-04-02T07:18:29;5.40;99.90
20504;DHT22;10410;51.046;6.980;2023-04-02T07:25:31;5.40;99.90
20504;DHT22;10410;51.046;6.980;2023-04-02T07:32:32;5.40;99.90
20504;DHT22;10410;51.046;6.980;2023-04-02T07:39:32;5.40;99.90
20504;DHT22;10410;51.046;6.980;2023-04-02T07:46:35;5.40;99.90
20504;DHT22;10410;51.046;6.980;2023-04-02T07:53:36;5.40;99.90
20504;DHT22;10410;51.046;6.980;2023-04-02T08:00:40;5.50;99.90
20504;DHT22;10410;51.046;6.980;2023-04-02T08:07:41;5.50;99.90
20504;DHT22;10410;51.046;6.980;2023-04-02T08:14:41;5.50;99.90
20504;DHT22;10410;51.046;6.980;2023-04-02T08:21:42;5.60;99.90
20504;DHT22;10410;51.046;6.980;2023-04-02T08:28:43;5.60;99.90
20504;DHT22;10410;51.046;6.980;2023-04-02T08:35:48;5.60;99.90
20504;DHT22;10410;51.046;6.980;2023-04-02T08:43:08;5.70;99.90
20504;DHT22;10410;51.046;6.980;2023-04-02T08:50:21;5.80;99.90
20504;DHT22;10410;51.046;6.980;2023-04-02T08:57:44;5.80;99.90
20504;DHT22;10410;51.046;6.980;2023-04-02T09:04:46;5.90;99.90
20504;DHT22;10410;51.046;6.980;2023-04-02T09:11:56;5.90;99.90
20504;DHT22;10410;51.046;6.980;2023-04-02T09:19:22;5.90;99.90
20504;DHT22;10410;51.046;6.980;2023-04-02T09:26:30;6.10;99.90
20504;DHT22;10410;51.046;6.980;2023-04-02T09:33:46;6.30;99.90
20504;DHT22;10410;51.046;6.980;2023-04-02T09:40:58;6.40;99.90
20504;DHT22;10410;51.046;6.980;2023-04-02T09:47:58;6.50;99.90
20504;DHT22;10410;51.046;6.980;2023-04-02T09:55:18;6.40;99.90
20504;DHT22;10410;51.046;6.980;2023-04-02T10:02:24;6.40;99.90
20504;DHT22;10410;51.046;6.980;2023-04-02T10:09:31;6.30;99.90
20504;DHT22;10410;51.046;6.980;2023-04-02T10:16:36;6.30;99.90
20504;DHT22;10410;51.046;6.980;2023-04-02T10:23:38;6.30;99.90
20504;DHT22;10410;51.046;6.980;2023-04-02T10:30:53;6.50;99.90
20504;DHT22;10410;51.046;6.980;2023-04-02T10:38:05;6.70;99.90
20504;DHT22;10410;51.046;6.980;2023-04-02T10:53:01;6.70;99.90
20504;DHT22;10410;51.046;6.980;2023-04-02T11:07:21;6.70;99.90
20504;DHT22;10410;51.046;6.980;2023-04-02T11:29:11;7.00;99.90
20504;DHT22;10410;51.046;6.980;2023-04-02T11:43:59;7.30;99.90
20504;DHT22;10410;51.046;6.980;2023-04-02T11:51:09;7.30;99.90
20504;DHT22;10410;51.046;6.980;2023-04-02T12:05:39;7.20;99.90
20504;DHT22;10410;51.046;6.980;2023-04-02T12:12:42;7.30;99.90
20504;DHT22;10410;51.046;6.980;2023-04-02T12:19:51;7.20;99.90
20504;DHT22;10410;51.046;6.980;2023-04-02T12:27:09;7.10;99.90
20504;DHT22;10410;51.046;6.980;2023-04-02T12:34:20;7.10;99.90
20504;DHT22;10410;51.046;6.980;2023-04-02T12:41:29;7.20;99.90
20504;DHT22;10410;51.046;6.980;2023-04-02T12:48:32;7.30;99.90
20504;DHT22;10410;51.046;6.980;2023-04-02T12:55:33;7.40;99.90
20504;DHT22;10410;51.046;6.980;2023-04-02T13:02:45;7.60;99.90
20504;DHT22;10410;51.046;6.980;2023-04-02T13:09:54;7.70;99.90
20504;DHT22;10410;51.046;6.980;2023-04-02T13:16:55;7.90;99.90
20504;DHT22;10410;51.046;6.980;2023-04-02T13:23:55;8.10;99.90
20504;DHT22;10410;51.046;6.980;2023-04-02T13:30:55;8.30;99.90
20504;DHT22;10410;51.046;6.980;2023-04-02T13:37:56;8.30;99.90
20504;DHT22;10410;51.046;6.980;2023-04-02T13:44:56;8.50;99.90
20504;DHT22;10410;51.046;6.980;2023-04-02T13:51:59;8.50;99.90
20504;DHT22;10410;51.046;6.980;2023-04-02T13:59:02;8.40;99.90
20504;DHT22;10410;51.046;6.980;2023-04-02T14:13:59;8.40;99.90
20504;DHT22;10410;51.046;6.980;2023-04-02T14:21:26;8.50;99.90
20504;DHT22;10410;51.046;6.980;2023-04-02T14:28:56;8.20;99.90
20504;DHT22;10410;51.046;6.980;2023-04-02T14:43:27;7.90;99.90
20504;DHT22;10410;51.046;6.980;2023-04-02T14:50:36;7.80;99.90
20504;DHT22;10410;51.046;6.980;2023-04-02T14:57:41;7.90;99.90
20504;DHT22;10410;51.046;6.980;2023-04-02T15:05:18;7.90;99.90
20504;DHT22;10410;51.046;6.980;2023-04-02T15:12:31;7.90;99.90
20504;DHT22;10410;51.046;6.980;2023-04-02T15:19:31;8.00;99.90
20504;DHT22;10410;51.046;6.980;2023-04-02T15:26:56;8.40;99.90
20504;DHT22;10410;51.046;6.980;2023-04-02T15:55:36;9.90;99.90
20504;DHT22;10410;51.046;6.980;2023-04-02T16:17:14;8.60;99.90
20504;DHT22;10410;51.046;6.980;2023-04-02T16:24:24;8.30;99.90
20504;DHT22;10410;51.046;6.980;2023-04-02T16:45:55;8.60;99.90
20504;DHT22;10410;51.046;6.980;2023-04-02T16:53:42;8.70;99.90
20504;DHT22;10410;51.046;6.980;2023-04-02T17:01:20;8.70;99.90
20504;DHT22;10410;51.046;6.980;2023-04-02T17:08:25;8.60;99.90
20504;DHT22;10410;51.046;6.980;2023-04-02T17:15:37;8.60;99.90
20504;DHT22;10410;51.046;6.980;2023-04-02T17:22:38;8.50;99.90
20504;DHT22;10410;51.046;6.980;2023-04-02T17:29:42;8.40;99.90
20504;DHT22;10410;51.046;6.980;2023-04-02T17:36:49;8.20;99.90
20504;DHT22;10410;51.046;6.980;2023-04-02T18:06:14;7.40;99.90
20504;DHT22;10410;51.046;6.980;2023-04-02T18:20:38;7.30;99.90
20504;DHT22;10410;51.046;6.980;2023-04-02T18:27:56;7.30;99.90
20504;DHT22;10410;51.046;6.980;2023-04-02T18:35:33;7.30;99.90
20504;DHT22;10410;51.046;6.980;2023-04-02T18:42:58;7.30;99.90
20504;DHT22;10410;51.046;6.980;2023-04-02T18:50:29;7.20;99.90
20504;DHT22;10410;51.046;6.980;2023-04-02T18:57:31;7.10;99.90
20504;DHT22;10410;51.046;6.980;2023-04-02T19:04:34;7.00;99.90
20504;DHT22;10410;51.046;6.980;2023-04-02T19:11:35;6.90;99.90
20504;DHT22;10410;51.046;6.980;2023-04-02T19:18:43;6.80;99.90
20504;DHT22;10410;51.046;6.980;2023-04-02T19:25:59;6.70;99.90
20504;DHT22;10410;51.046;6.980;2023-04-02T19:40:57;6.60;99.90
20504;DHT22;10410;51.046;6.980;2023-04-02T19:48:08;6.40;99.90
20504;DHT22;10410;51.046;6.980;2023-04-02T19:55:09;6.20;99.90
20504;DHT22;10410;51.046;6.980;2023-04-02T20:02:09;6.10;99.90
20504;DHT22;10410;51.046;6.980;2023-04-02T20:09:10;5.90;99.90
20504;DHT22;10410;51.046;6.980;2023-04-02T20:16:10;5.80;99.90
20504;DHT22;10410;51.046;6.980;2023-04-02T20:23:14;5.70;99.90
20504;DHT22;10410;51.046;6.980;2023-04-02T20:30:14;5.70;99.90
20504;DHT22;10410;51.046;6.980;2023-04-02T20:37:15;5.60;99.90
20504;DHT22;10410;51.046;6.980;2023-04-02T20:44:16;5.50;99.90
20504;DHT22;10410;51.046;6.980;2023-04-02T20:51:16;5.30;99.90
20504;DHT22;10410;51.046;6.980;2023-04-02T20:58:17;5.10;99.90
20504;DHT22;10410;51.046;6.980;2023-04-02T21:05:18;5.00;99.90
20504;DHT22;10410;51.046;6.980;2023-04-02T21:12:18;4.80;99.90
20504;DHT22;10410;51.046;6.980;2023-04-02T21:19:19;4.70;99.90
20504;DHT22;10410;51.046;6.980;2023-04-02T21:26:19;4.50;99.90
20504;DHT22;10410;51.046;6.980;2023-04-02T21:33:20;4.40;99.90
20504;DHT22;10410;51.046;6.980;2023-04-02T21:40:20;4.20;99.90
20504;DHT22;10410;51.046;6.980;2023-04-02T21:47:21;4.10;99.90
20504;DHT22;10410;51.046;6.980;2023-04-02T21:54:22;3.90;99.90
20504;DHT22;10410;51.046;6.980;2023-04-02T22:01:25;3.80;99.90
20504;DHT22;10410;51.046;6.980;2023-04-02T22:08:27;3.60;99.90
20504;DHT22;10410;51.046;6.980;2023-04-02T22:15:30;3.50;99.90
20504;DHT22;10410;51.046;6.980;2023-04-02T22:22:32;3.40;99.90
20504;DHT22;10410;51.046;6.980;2023-04-02T22:29:32;3.30;99.90
20504;DHT22;10410;51.046;6.980;2023-04-02T22:36:33;3.20;99.90
20504;DHT22;10410;51.046;6.980;2023-04-02T22:43:35;3.10;99.90
20504;DHT22;10410;51.046;6.980;2023-04-02T22:50:35;3.00;99.90
20504;DHT22;10410;51.046;6.980;2023-04-02T22:57:36;2.90;99.90
20504;DHT22;10410;51.046;6.980;2023-04-02T23:04:37;2.80;99.90
20504;DHT22;10410;51.046;6.980;2023-04-02T23:11:37;2.70;99.90
20504;DHT22;10410;51.046;6.980;2023-04-02T23:18:38;2.60;99.90
20504;DHT22;10410;51.046;6.980;2023-04-02T23:25:39;2.60;99.90
20504;DHT22;10410;51.046;6.980;2023-04-02T23:32:40;2.50;99.90
20504;DHT22;10410;51.046;6.980;2023-04-02T23:39:40;2.50;99.90
20504;DHT22;10410;51.046;6.980;2023-04-02T23:46:41;2.40;99.90
20504;DHT22;10410;51.046;6.980;2023-04-02T23:53:42;2.30;99.90
